Time;durP1;ratioP1;P1;durP2;ratioP2;P2;SDS_P1;SDS_P2;PMS_P1;PMS_P2;Temp;Humidity;BMP_temperature;BMP_pressure;BME280_temperature;BME280_humidity;BME280_pressure;Samples;Min_cycle;Max_cycle;Signal;HPM_P1;HPM_P2
2021/05/18 00:00:26;;;;;;;5.65;3.70;;;;;;;10.26;88.93;97189.94;125861;1096;26212;-79
2021/05/18 00:03:15;;;;;;;4.00;3.60;;;;;;;10.26;88.71;97188.02;126107;1095;27154;-79
2021/05/18 00:05:50;;;;;;;5.73;4.30;;;;;;;10.28;89.37;97190.47;126179;1096;26226;-79
2021/05/18 00:08:20;;;;;;;3.40;3.10;;;;;;;10.29;89.12;97197.55;126044;1101;22747;-79
2021/05/18 00:13:41;;;;;;;6.30;3.60;;;;;;;10.29;89.31;97189.39;126104;1096;22740;-79
2021/05/18 00:16:09;;;;;;;4.40;3.30;;;;;;;10.30;89.27;97190.20;126131;1096;26216;-79
2021/05/18 00:18:39;;;;;;;7.30;3.80;;;;;;;10.30;89.26;97199.17;126078;1101;22748;-79
2021/05/18 00:21:07;;;;;;;5.45;4.60;;;;;;;10.31;89.35;97200.01;125872;1101;22809;-79
2021/05/18 00:23:35;;;;;;;4.50;4.10;;;;;;;10.28;89.42;97198.63;126246;1096;25868;-79
2021/05/18 00:26:08;;;;;;;7.27;4.73;;;;;;;10.25;89.08;97199.17;126165;1101;22914;-79
2021/05/18 00:28:37;;;;;;;5.27;4.37;;;;;;;10.22;89.29;97203.27;125940;1096;26206;-79
2021/05/18 00:31:05;;;;;;;5.65;3.93;;;;;;;10.20;89.23;97205.45;126219;1101;24382;-79
2021/05/18 00:33:33;;;;;;;8.78;4.38;;;;;;;10.18;89.18;97204.92;126148;1101;22829;-79
2021/05/18 00:36:02;;;;;;;4.27;3.87;;;;;;;10.16;89.59;97198.10;125869;1101;22741;-79
2021/05/18 00:38:30;;;;;;;6.30;3.95;;;;;;;10.13;89.65;97207.64;125851;1101;22781;-79
2021/05/18 00:40:57;;;;;;;5.35;3.80;;;;;;;10.09;89.35;97206.53;126138;1096;26245;-79
2021/05/18 00:43:25;;;;;;;4.95;4.45;;;;;;;10.11;89.62;97203.55;126157;1101;24411;-79
2021/05/18 00:45:53;;;;;;;7.20;4.75;;;;;;;10.11;89.64;97201.66;125903;1096;22747;-79
2021/05/18 00:48:22;;;;;;;6.80;5.60;;;;;;;10.15;89.80;97208.17;125878;1101;22722;-79
2021/05/18 00:50:54;;;;;;;;;;;;;;;10.15;89.81;97216.34;126077;1096;25873;-79
2021/05/18 00:53:23;;;;;;;6.80;5.50;;;;;;;10.16;90.05;97217.95;125873;1101;21461;-79
2021/05/18 00:56:02;;;;;;;6.00;5.40;;;;;;;10.16;89.79;97217.95;125866;1096;22935;-79
2021/05/18 00:58:37;;;;;;;6.47;5.43;;;;;;;10.17;89.95;97216.06;126070;1101;22740;-79
2021/05/18 01:01:20;;;;;;;9.40;5.43;;;;;;;10.16;89.64;97223.39;126121;1096;26206;-79
2021/05/18 01:03:52;;;;;;;7.75;6.05;;;;;;;10.09;89.92;97211.97;126452;1101;22768;-79
2021/05/18 01:06:28;;;;;;;8.63;6.00;;;;;;;10.08;90.02;97210.36;126153;1096;26248;-79
2021/05/18 01:09:06;;;;;;;9.00;6.00;;;;;;;10.09;89.64;97214.69;126198;1095;25871;-79
2021/05/18 01:11:48;;;;;;;7.70;6.77;;;;;;;10.08;89.82;97211.16;126110;1101;22803;-79
2021/05/18 01:14:18;;;;;;;8.90;7.00;;;;;;;10.07;90.17;97214.16;126077;1102;22770;-79
2021/05/18 01:16:52;;;;;;;10.50;8.10;;;;;;;10.04;89.46;97222.88;126153;1101;22758;-79
2021/05/18 01:19:26;;;;;;;9.70;7.30;;;;;;;10.02;89.84;97223.15;126085;1101;22758;-79
2021/05/18 01:21:56;;;;;;;10.30;7.97;;;;;;;10.00;90.16;97219.86;126077;1095;27151;-79
2021/05/18 01:24:25;;;;;;;8.65;7.55;;;;;;;10.01;90.58;97217.98;126055;1101;22812;-79
2021/05/18 01:27:08;;;;;;;9.90;8.17;;;;;;;10.01;90.28;97217.98;126086;1102;22758;-79
2021/05/18 01:29:35;;;;;;;;;;;;;;;10.02;90.23;97217.71;126209;1096;27116;-79
2021/05/18 01:32:08;;;;;;;10.40;8.00;;;;;;;10.01;90.11;97212.53;126081;1101;21578;-79
2021/05/18 01:34:36;;;;;;;10.00;7.50;;;;;;;9.99;90.23;97212.80;126203;1101;23456;-79
2021/05/18 01:37:03;;;;;;;7.20;6.47;;;;;;;9.96;90.02;97218.78;126064;1101;22733;-79
2021/05/18 01:42:48;;;;;;;7.80;6.50;;;;;;;9.94;90.01;97222.88;126131;1101;23544;-79
2021/05/18 01:45:30;;;;;;;8.57;6.23;;;;;;;9.93;90.12;97222.03;126041;1096;22743;-79
2021/05/18 01:48:03;;;;;;;5.20;4.70;;;;;;;9.89;90.34;97224.48;126064;1096;26203;-79
2021/05/18 01:50:56;;;;;;;7.20;5.60;;;;;;;9.84;90.35;97226.39;126064;1096;26293;-79
2021/05/18 01:53:24;;;;;;;8.70;5.10;;;;;;;9.82;90.51;97231.28;126104;1101;22761;-79
2021/05/18 01:58:23;;;;;;;6.35;4.55;;;;;;;9.78;90.03;97233.72;126192;1096;22734;-79
2021/05/18 02:00:59;;;;;;;6.60;5.30;;;;;;;9.74;90.28;97238.08;126155;1101;24597;-79
2021/05/18 02:03:28;;;;;;;5.47;4.07;;;;;;;9.71;90.49;97244.05;126102;1101;22758;-79
2021/05/18 02:05:57;;;;;;;7.50;5.00;;;;;;;9.71;90.73;97235.09;126198;1101;22734;-79
2021/05/18 02:08:32;;;;;;;5.75;4.20;;;;;;;9.69;90.19;97244.31;126135;1101;22733;-79
2021/05/18 02:11:02;;;;;;;4.75;3.25;;;;;;;9.68;90.59;97239.14;126114;1101;22734;-79
2021/05/18 02:13:31;;;;;;;3.85;3.50;;;;;;;9.65;90.53;97243.23;125909;1096;26203;-79
2021/05/18 02:16:09;;;;;;;4.43;4.00;;;;;;;9.62;90.89;97248.39;126032;1096;22740;-79
2021/05/18 02:26:29;;;;;;;4.87;4.43;;;;;;;9.67;91.27;97253.84;126184;1101;22893;-79
2021/05/18 02:29:14;;;;;;;5.60;4.45;;;;;;;9.67;90.88;97251.12;125896;1101;22761;-79
2021/05/18 02:31:43;;;;;;;6.60;5.00;;;;;;;9.66;91.10;97254.91;126205;1101;22744;-79
2021/05/18 02:34:37;;;;;;;5.50;4.75;;;;;;;9.67;90.30;97254.64;126164;1101;24418;-79
2021/05/18 02:37:05;;;;;;;4.57;4.10;;;;;;;9.68;90.43;97250.85;126201;1095;26646;-79
2021/05/18 02:39:32;;;;;;;5.80;5.20;;;;;;;9.72;90.69;97258.45;125791;1095;27369;-79
2021/05/18 02:42:15;;;;;;;7.05;6.35;;;;;;;9.74;91.04;97262.55;126027;1096;26265;-79
2021/05/18 02:44:52;;;;;;;8.70;6.83;;;;;;;9.74;90.65;97262.55;126107;1101;22752;-79
2021/05/18 02:50:10;;;;;;;7.50;6.70;;;;;;;9.72;90.48;97264.72;126046;1101;22758;-79
2021/05/18 02:52:40;;;;;;;10.43;8.10;;;;;;;9.70;90.43;97261.43;126161;1096;25864;-79
2021/05/18 02:55:32;;;;;;;9.70;8.65;;;;;;;9.68;90.47;97269.88;126180;1102;22734;-79
2021/05/18 02:57:59;;;;;;;7.20;6.40;;;;;;;9.66;90.33;97265.78;126179;1095;25865;-79
2021/05/18 03:00:27;;;;;;;8.30;6.60;;;;;;;9.66;90.87;97282.09;126103;1096;27115;-79
2021/05/18 03:02:55;;;;;;;6.50;5.50;;;;;;;9.65;90.98;97278.56;126118;1096;22758;-79
2021/05/18 03:05:26;;;;;;;6.30;5.45;;;;;;;9.67;90.62;97287.27;126126;1101;22785;-79
2021/05/18 03:07:55;;;;;;;6.80;5.65;;;;;;;9.67;90.62;97289.98;126097;1101;22758;-79
2021/05/18 03:10:23;;;;;;;;;;;;;;;9.68;90.49;97298.95;126227;1101;22744;-79
2021/05/18 03:12:50;;;;;;;7.10;5.50;;;;;;;9.67;90.40;97300.86;126135;1101;21468;-79
2021/05/18 03:15:33;;;;;;;6.50;5.10;;;;;;;9.67;90.48;97303.58;125972;1101;24404;-79
2021/05/18 03:18:03;;;;;;;6.50;5.83;;;;;;;9.68;90.83;97305.22;126165;1101;22740;-80
2021/05/18 03:20:31;;;;;;;;;;;;;;;9.68;90.77;97312.54;126140;1101;22744;-79
2021/05/18 03:22:58;;;;;;;8.15;5.65;;;;;;;9.65;90.34;97311.19;126139;1101;21458;-79
2021/05/18 03:25:26;;;;;;;6.80;5.70;;;;;;;9.62;90.98;97306.27;126092;1096;22744;-79
2021/05/18 03:27:57;;;;;;;5.93;5.27;;;;;;;9.63;90.58;97323.39;125856;1101;22749;-79
2021/05/18 03:35:46;;;;;;;8.30;6.15;;;;;;;9.68;91.18;97324.25;126109;1101;24415;-79
2021/05/18 03:38:19;;;;;;;6.05;5.45;;;;;;;9.68;91.06;97324.25;126143;1096;27132;-78
2021/05/18 03:40:53;;;;;;;6.23;4.93;;;;;;;9.68;90.58;97328.84;126070;1101;22761;-79
2021/05/18 03:48:40;;;;;;;7.10;5.40;;;;;;;9.69;90.52;97336.73;126078;1096;27164;-79
2021/05/18 04:21:52;;;;;;;5.00;4.25;;;;;;;9.84;89.82;97362.34;126130;1101;22740;-79
2021/05/18 04:51:55;;;;;;;5.50;4.57;;;;;;;9.85;90.59;97378.39;125941;1101;22758;-79
2021/05/18 05:00:04;;;;;;;6.57;4.90;;;;;;;9.90;90.30;97380.32;126243;1101;22764;-79
2021/05/18 05:07:59;;;;;;;7.05;4.45;;;;;;;9.96;90.04;97381.15;126392;1101;22777;-79
2021/05/18 05:15:53;;;;;;;6.50;5.45;;;;;;;10.02;90.51;97383.63;126197;1101;22755;-79
2021/05/18 05:18:21;;;;;;;5.60;5.03;;;;;;;10.06;90.23;97378.46;126469;1095;27211;-79
2021/05/18 05:20:48;;;;;;;6.70;5.55;;;;;;;10.07;90.18;97383.64;126394;1102;22747;-79
2021/05/18 05:23:16;;;;;;;5.90;4.73;;;;;;;10.06;90.26;97381.99;126387;1096;22778;-79
2021/05/18 05:25:44;;;;;;;5.30;4.80;;;;;;;10.09;90.29;97383.34;126558;1101;22773;-79
2021/05/18 05:28:11;;;;;;;6.70;4.30;;;;;;;10.12;89.57;97401.05;126148;1101;22818;-79
2021/05/18 05:30:39;;;;;;;7.45;4.85;;;;;;;10.13;89.83;97405.39;126426;1101;24375;-79
2021/05/18 05:33:07;;;;;;;5.00;4.50;;;;;;;10.12;89.73;97396.41;126414;1101;24134;-79
2021/05/18 05:35:34;;;;;;;6.05;4.95;;;;;;;10.12;89.93;97395.61;126455;1101;22802;-79
2021/05/18 05:38:02;;;;;;;6.45;5.20;;;;;;;10.14;89.72;97401.59;126603;1101;23032;-79
2021/05/18 05:40:29;;;;;;;5.33;4.83;;;;;;;10.18;90.25;97402.68;126595;1101;22804;-79
2021/05/18 05:43:11;;;;;;;4.45;4.05;;;;;;;10.19;89.55;97401.61;126182;1096;25864;-79
2021/05/18 05:45:39;;;;;;;5.73;4.80;;;;;;;10.23;90.00;97408.14;126279;1096;22745;-79
2021/05/18 05:48:07;;;;;;;7.07;5.07;;;;;;;10.26;89.68;97413.05;126136;1101;22734;-79
2021/05/18 05:50:36;;;;;;;6.40;5.05;;;;;;;10.28;89.56;97412.78;126245;1101;24419;-79
2021/05/18 05:53:04;;;;;;;6.80;5.43;;;;;;;10.29;89.70;97412.52;126448;1096;23386;-79
2021/05/18 05:55:32;;;;;;;5.05;4.35;;;;;;;10.32;90.00;97414.71;126290;1101;22846;-79
2021/05/18 05:58:00;;;;;;;6.83;4.40;;;;;;;10.34;90.78;97409.84;126570;1097;22746;-80
2021/05/18 06:00:27;;;;;;;6.13;4.73;;;;;;;10.37;89.80;97413.92;126172;1102;23695;-79
2021/05/18 06:02:55;;;;;;;6.50;4.80;;;;;;;10.40;89.27;97413.38;126180;1101;24389;-79
2021/05/18 06:05:22;;;;;;;5.50;4.37;;;;;;;10.41;89.33;97423.16;126618;1096;22922;-79
2021/05/18 06:07:50;;;;;;;7.25;4.85;;;;;;;10.39;89.49;97430.79;126104;1101;22755;-79
2021/05/18 06:10:28;;;;;;;6.13;4.40;;;;;;;10.38;89.12;97429.98;126132;1096;26213;-79
2021/05/18 06:16:37;;;;;;;6.20;4.30;;;;;;;10.37;89.50;97435.69;125801;1102;22799;-79
2021/05/18 06:49:19;;;;;;;5.75;3.75;;;;;;;10.83;88.73;97452.09;126200;1096;25990;-79
2021/05/18 06:51:48;;;;;;;2.60;2.40;;;;;;;10.86;88.12;97462.45;126374;1101;23106;-79
2021/05/18 06:54:16;;;;;;;3.60;1.73;;;;;;;10.85;87.86;97460.80;126245;1101;22771;-79
2021/05/18 06:56:46;;;;;;;1.90;1.50;;;;;;;10.85;86.81;97460.80;126512;1101;22759;-79
2021/05/18 07:01:46;;;;;;;2.30;1.60;;;;;;;10.74;86.88;97467.33;126234;1101;22768;-79
2021/05/18 07:04:15;;;;;;;1.78;1.48;;;;;;;10.70;86.97;97463.53;126173;1101;23199;-79
2021/05/18 07:06:57;;;;;;;2.28;1.10;;;;;;;10.64;86.63;97473.56;125924;1101;22740;-78
2021/05/18 07:09:24;;;;;;;2.35;1.45;;;;;;;10.59;87.20;97462.70;125988;1102;22751;-79
2021/05/18 07:11:52;;;;;;;3.13;1.73;;;;;;;10.60;87.40;97475.20;126383;1101;24696;-79
2021/05/18 07:14:20;;;;;;;2.70;2.00;;;;;;;10.58;87.66;97471.94;126156;1102;22763;-79
2021/05/18 07:17:02;;;;;;;2.80;1.80;;;;;;;10.58;87.63;97470.02;126115;1101;22748;-79
2021/05/18 07:19:30;;;;;;;4.55;2.20;;;;;;;10.59;87.52;97474.39;126194;1101;22744;-79
2021/05/18 07:21:58;;;;;;;3.27;1.97;;;;;;;10.62;87.92;97471.14;126104;1096;22764;-79
2021/05/18 07:24:28;;;;;;;2.50;2.20;;;;;;;10.64;87.68;97459.95;126133;1101;22831;-79
2021/05/18 07:26:58;;;;;;;3.07;2.20;;;;;;;10.66;87.55;97459.69;126151;1101;22767;-79
2021/05/18 07:29:40;;;;;;;2.40;1.85;;;;;;;10.69;87.81;97467.33;126144;1101;22748;-79
2021/05/18 07:32:08;;;;;;;3.10;2.30;;;;;;;10.69;87.75;97461.88;125955;1096;27439;-79
2021/05/18 07:34:35;;;;;;;3.43;2.30;;;;;;;10.70;88.11;97461.61;125906;1096;25868;-79
2021/05/18 07:37:03;;;;;;;2.60;1.80;;;;;;;10.74;87.50;97465.42;125897;1102;24192;-79
2021/05/18 07:39:31;;;;;;;2.30;1.90;;;;;;;10.79;87.63;97462.70;125890;1101;22768;-79
2021/05/18 07:41:58;;;;;;;2.55;2.10;;;;;;;10.81;87.79;97476.05;126063;1101;22828;-79
2021/05/18 07:44:25;;;;;;;3.40;2.00;;;;;;;10.86;87.60;97472.53;126106;1101;22743;-79
2021/05/18 07:46:53;;;;;;;2.03;1.67;;;;;;;10.92;87.26;97474.16;126082;1101;22793;-79
2021/05/18 07:49:27;;;;;;;2.35;1.50;;;;;;;10.98;86.95;97473.09;126124;1096;25832;-79
2021/05/18 08:06:03;;;;;;;3.40;1.47;;;;;;;11.19;86.54;97480.16;126097;1101;22769;-79
2021/05/18 08:08:30;;;;;;;2.95;1.60;;;;;;;11.19;85.81;97482.89;125914;1102;22754;-79
2021/05/18 08:11:02;;;;;;;3.05;1.40;;;;;;;11.19;85.43;97480.16;126174;1096;22743;-79
2021/05/18 08:13:30;;;;;;;1.60;1.30;;;;;;;11.21;85.76;97477.17;125851;1102;22748;-79
2021/05/18 10:22:35;;;;;;;12.05;10.85;;;;;;;13.04;80.85;97572.38;126036;1096;25881;-77
2021/05/18 10:36:09;;;;;;;9.80;8.90;;;;;;;13.17;79.67;97575.58;125958;1097;22826;-78
2021/05/18 10:38:43;;;;;;;7.50;6.80;;;;;;;13.14;78.70;97573.41;126220;1097;22855;-78
2021/05/18 10:41:15;;;;;;;11.45;8.00;;;;;;;13.11;79.09;97577.53;125956;1096;27298;-78
2021/05/18 10:43:44;;;;;;;11.20;10.10;;;;;;;13.13;79.54;97579.98;126339;1101;22812;-78
2021/05/18 10:46:17;;;;;;;9.00;8.20;;;;;;;13.21;79.86;97580.20;126046;1096;22769;-78
2021/05/18 10:48:54;;;;;;;10.90;9.80;;;;;;;13.26;80.11;97585.64;126127;1103;22864;-78
2021/05/18 10:51:43;;;;;;;8.50;7.70;;;;;;;13.21;79.21;97582.10;126130;1101;22912;-78
2021/05/18 10:54:28;;;;;;;7.63;6.85;;;;;;;13.10;78.91;97582.19;126358;1101;22778;-78
2021/05/18 10:56:59;;;;;;;9.13;8.23;;;;;;;13.01;78.76;97583.05;126321;1101;22775;-78
2021/05/18 10:59:29;;;;;;;9.45;8.65;;;;;;;12.95;80.06;97582.27;126355;1101;22774;-78
2021/05/18 11:02:17;;;;;;;8.50;7.70;;;;;;;12.96;79.46;97597.59;126065;1102;22758;-78
2021/05/18 11:05:14;;;;;;;9.20;8.30;;;;;;;12.95;79.08;97592.40;126263;1096;22721;-78
2021/05/18 11:07:44;;;;;;;8.20;7.35;;;;;;;12.97;80.68;97593.73;126386;1101;24517;-78
2021/05/18 11:10:17;;;;;;;8.25;7.25;;;;;;;12.95;79.06;97595.94;126138;1101;22758;-80
2021/05/18 11:12:47;;;;;;;8.33;7.60;;;;;;;12.93;80.03;97595.41;126109;1096;26203;-78
2021/05/18 11:15:20;;;;;;;7.30;6.70;;;;;;;12.98;80.46;97603.58;126141;1101;22761;-78
2021/05/18 11:17:49;;;;;;;9.75;7.30;;;;;;;12.99;80.06;97598.92;126032;1101;22749;-78
2021/05/18 11:20:24;;;;;;;6.95;6.00;;;;;;;12.96;78.69;97596.75;126094;1097;27144;-78
2021/05/18 11:25:50;;;;;;;6.15;5.50;;;;;;;13.03;78.84;97602.72;126070;1097;25835;-78
2021/05/18 11:28:22;;;;;;;6.00;5.45;;;;;;;13.08;78.15;97608.16;126064;1101;22756;-79
2021/05/18 11:30:53;;;;;;;6.50;5.93;;;;;;;13.12;78.84;97606.52;125840;1101;24540;-78
2021/05/18 11:33:30;;;;;;;6.97;6.37;;;;;;;13.17;78.85;97609.19;125834;1102;22813;-78
2021/05/18 11:36:29;;;;;;;7.10;6.40;;;;;;;13.25;78.66;97608.61;125870;1097;27166;-79
2021/05/18 11:39:02;;;;;;;5.75;4.95;;;;;;;13.29;77.75;97612.39;126384;1096;26295;-79
2021/05/18 11:41:34;;;;;;;5.50;5.00;;;;;;;13.37;78.51;97610.19;126408;1101;22910;-79
2021/05/18 11:44:03;;;;;;;7.70;6.15;;;;;;;13.46;78.54;97611.24;126021;1097;27260;-79
2021/05/18 11:46:33;;;;;;;10.18;6.80;;;;;;;13.52;77.38;97610.09;126345;1101;22714;-79
2021/05/18 11:49:11;;;;;;;5.70;5.30;;;;;;;13.62;76.75;97601.00;126405;1096;27219;-79
2021/05/18 11:51:45;;;;;;;6.03;5.47;;;;;;;13.69;77.12;97604.22;126341;1096;26285;-79
2021/05/18 11:54:17;;;;;;;5.67;5.17;;;;;;;13.79;76.42;97601.41;126517;1101;22809;-79
2021/05/18 11:56:46;;;;;;;7.35;5.35;;;;;;;13.88;75.53;97603.50;126593;1101;23344;-79
2021/05/18 11:59:15;;;;;;;4.88;4.25;;;;;;;13.92;74.02;97605.39;126285;1102;22771;-79
2021/05/18 12:01:58;;;;;;;7.18;6.50;;;;;;;13.98;75.36;97597.94;126467;1096;23535;-79
2021/05/18 12:04:28;;;;;;;6.20;5.60;;;;;;;14.08;75.22;97597.84;126557;1096;26864;-79
2021/05/18 12:06:58;;;;;;;9.77;5.43;;;;;;;14.18;75.91;97605.97;126582;1101;22758;-79
2021/05/18 12:09:28;;;;;;;5.95;5.45;;;;;;;14.28;73.99;97602.29;126741;1101;23500;-79
2021/05/18 12:12:05;;;;;;;5.80;5.30;;;;;;;14.30;74.48;97607.48;126418;1097;22729;-79
2021/05/18 12:14:50;;;;;;;10.85;5.70;;;;;;;14.31;74.26;97611.87;126352;1102;23554;-79
2021/05/18 12:17:34;;;;;;;;;;;;;;;14.34;74.25;97603.05;126417;1101;24639;-79
2021/05/18 12:20:12;;;;;;;7.20;6.50;;;;;;;14.34;73.95;97603.88;126657;1101;21586;-79
2021/05/18 12:22:45;;;;;;;6.10;5.10;;;;;;;14.35;73.61;97610.17;126323;1096;22741;-79
2021/05/18 12:25:36;;;;;;;8.17;6.50;;;;;;;14.37;72.94;97610.69;126359;1096;25983;-79
2021/05/18 12:28:12;;;;;;;7.27;6.57;;;;;;;14.40;73.13;97604.64;126527;1097;26244;-79
2021/05/18 12:30:44;;;;;;;7.70;6.95;;;;;;;14.41;73.95;97617.20;126657;1096;25864;-79
2021/05/18 12:33:44;;;;;;;8.35;6.70;;;;;;;14.39;72.44;97617.49;126558;1101;22873;-79
2021/05/18 12:36:12;;;;;;;9.03;7.57;;;;;;;14.30;73.38;97608.28;126339;1104;23408;-79
2021/05/18 12:38:39;;;;;;;9.00;6.05;;;;;;;14.31;73.83;97617.34;126573;1097;26235;-79
2021/05/18 12:41:08;;;;;;;6.57;5.43;;;;;;;14.30;73.02;97619.24;126492;1097;27291;-79
2021/05/18 12:43:43;;;;;;;9.70;6.23;;;;;;;14.23;73.09;97619.58;126417;1102;22819;-79
2021/05/18 12:46:15;;;;;;;7.27;6.47;;;;;;;14.23;74.14;97618.77;126521;1101;24330;-79
2021/05/18 12:48:48;;;;;;;6.60;6.00;;;;;;;14.24;73.52;97620.42;126554;1101;22820;-79
2021/05/18 12:51:19;;;;;;;6.30;5.55;;;;;;;14.18;73.08;97614.18;126378;1102;22734;-79
2021/05/18 12:53:47;;;;;;;6.90;6.00;;;;;;;14.15;73.15;97614.75;126494;1097;26869;-79
2021/05/18 12:56:33;;;;;;;5.80;4.95;;;;;;;14.16;73.20;97612.82;126324;1101;22800;-79
2021/05/18 12:59:05;;;;;;;7.35;5.70;;;;;;;14.18;73.43;97614.18;125876;1101;22939;-79
2021/05/18 13:01:45;;;;;;;6.40;5.80;;;;;;;14.22;73.66;97623.44;126099;1101;22744;-79
2021/05/18 13:04:15;;;;;;;6.80;5.90;;;;;;;14.26;72.76;97626.42;126128;1096;27150;-79
2021/05/18 13:06:44;;;;;;;6.50;5.55;;;;;;;14.19;72.60;97621.27;126130;1101;22910;-80
2021/05/18 13:09:19;;;;;;;8.63;7.00;;;;;;;14.15;73.95;97627.63;126119;1101;22790;-79
2021/05/18 13:14:59;;;;;;;7.50;4.90;;;;;;;14.15;73.71;97625.70;126102;1101;22816;-79
2021/05/18 13:17:28;;;;;;;4.45;4.05;;;;;;;14.16;72.21;97624.58;126189;1101;22897;-79
2021/05/18 13:20:16;;;;;;;5.20;3.90;;;;;;;14.18;72.03;97622.40;125957;1096;25976;-79
2021/05/18 13:22:47;;;;;;;7.25;5.00;;;;;;;14.24;73.48;97623.16;126190;1101;22734;-79
2021/05/18 13:27:57;;;;;;;4.10;3.37;;;;;;;14.48;72.16;97622.34;126159;1096;26238;-79
2021/05/18 13:30:29;;;;;;;4.70;4.00;;;;;;;14.61;72.51;97624.44;126108;1101;22758;-80
2021/05/18 13:32:57;;;;;;;3.50;3.10;;;;;;;14.68;70.08;97624.06;125896;1101;22813;-80
2021/05/18 13:35:28;;;;;;;3.50;3.10;;;;;;;14.69;70.06;97618.29;125927;1104;22854;-80
2021/05/18 13:37:58;;;;;;;3.30;3.00;;;;;;;14.78;70.01;97618.45;125884;1096;27281;-79
2021/05/18 13:40:27;;;;;;;5.20;3.10;;;;;;;14.79;69.34;97615.43;125900;1101;22778;-80
2021/05/18 13:42:55;;;;;;;;;;;;;;;14.84;69.29;97614.56;126206;1101;24506;-80
2021/05/18 13:45:27;;;;;;;7.00;3.15;;;;;;;14.91;70.29;97615.02;125826;1096;25680;-80
2021/05/18 13:47:58;;;;;;;4.20;2.35;;;;;;;14.96;68.03;97620.44;125890;1101;22920;-80
2021/05/18 13:50:27;;;;;;;2.67;2.30;;;;;;;15.00;67.12;97618.73;125953;1101;24124;-80
2021/05/18 13:52:58;;;;;;;5.95;2.23;;;;;;;15.06;67.29;97621.41;126141;1097;22761;-79
2021/05/18 13:55:39;;;;;;;4.03;2.30;;;;;;;15.16;67.43;97613.05;125941;1102;23201;-79
2021/05/18 13:58:07;;;;;;;5.23;2.13;;;;;;;15.25;66.07;97614.00;126262;1101;23027;-80
2021/05/18 14:00:48;;;;;;;2.43;1.77;;;;;;;15.23;65.24;97616.23;125945;1101;22875;-80
2021/05/18 14:03:16;;;;;;;2.10;1.55;;;;;;;15.29;66.19;97611.48;126014;1101;22744;-80
2021/05/18 14:05:44;;;;;;;3.10;1.80;;;;;;;15.39;65.13;97611.34;126139;1097;26329;-80
2021/05/18 14:08:34;;;;;;;5.77;1.90;;;;;;;15.42;65.58;97618.14;126075;1101;22771;-80
2021/05/18 14:11:08;;;;;;;1.55;1.30;;;;;;;15.45;65.58;97614.81;126184;1097;27155;-80
2021/05/18 14:13:39;;;;;;;1.43;1.30;;;;;;;15.48;65.38;97611.48;125899;1094;22775;-80
2021/05/18 14:16:09;;;;;;;1.53;1.10;;;;;;;15.56;64.31;97619.02;126169;1097;22729;-80
2021/05/18 14:18:39;;;;;;;3.50;1.20;;;;;;;15.61;62.90;97618.14;126119;1101;22770;-80
2021/05/18 14:21:22;;;;;;;5.00;1.20;;;;;;;15.64;63.06;97609.31;126123;1101;22883;-80
2021/05/18 14:26:53;;;;;;;1.83;1.33;;;;;;;15.45;64.06;97620.30;125957;1101;22787;-80
2021/05/18 14:29:22;;;;;;;2.10;1.10;;;;;;;15.37;62.79;97610.82;126168;1101;24435;-80
2021/05/18 14:31:53;;;;;;;3.47;1.57;;;;;;;15.25;63.55;97624.97;125884;1102;22750;-79
2021/05/18 14:34:21;;;;;;;3.10;2.30;;;;;;;15.16;65.38;97615.78;126152;1097;27122;-80
2021/05/18 14:36:49;;;;;;;2.10;1.90;;;;;;;15.15;65.92;97622.37;126128;1101;22771;-79
2021/05/18 14:39:23;;;;;;;4.73;2.20;;;;;;;15.20;66.95;97622.30;125902;1102;22978;-80
2021/05/18 14:44:37;;;;;;;8.40;3.50;;;;;;;15.37;67.04;97621.80;125933;1101;22764;-79
2021/05/18 14:55:24;;;;;;;7.10;2.83;;;;;;;15.61;65.74;97607.16;126120;1101;22829;-80
2021/05/18 14:57:52;;;;;;;7.45;2.40;;;;;;;15.63;65.69;97611.22;125884;1096;26260;-80
2021/05/18 15:00:20;;;;;;;7.43;2.67;;;;;;;15.67;66.19;97604.04;125901;1102;22773;-79
2021/05/18 15:02:48;;;;;;;3.67;2.70;;;;;;;15.81;66.06;97617.02;126171;1097;26197;-80
2021/05/18 15:05:17;;;;;;;5.20;2.10;;;;;;;16.00;65.21;97615.04;125878;1102;23685;-80
2021/05/18 15:07:59;;;;;;;5.80;2.50;;;;;;;16.13;64.81;97613.46;126203;1097;25980;-80
2021/05/18 15:10:28;;;;;;;10.13;2.90;;;;;;;16.33;65.68;97612.27;125850;1101;24405;-80
2021/05/18 15:12:56;;;;;;;2.95;2.23;;;;;;;16.42;63.98;97618.68;126161;1097;22784;-80
2021/05/18 15:15:25;;;;;;;6.07;2.27;;;;;;;16.57;64.22;97622.25;126197;1101;22716;-80
2021/05/18 15:17:56;;;;;;;3.70;2.07;;;;;;;16.68;63.50;97630.00;125916;1097;27202;-80
2021/05/18 15:20:38;;;;;;;6.23;1.67;;;;;;;16.76;64.55;97613.91;126188;1102;22758;-80
2021/05/18 15:23:05;;;;;;;3.95;1.75;;;;;;;16.78;62.06;97611.66;125927;1101;22741;-80
2021/05/18 15:25:33;;;;;;;3.83;1.80;;;;;;;16.75;61.27;97621.35;125870;1097;27135;-80
2021/05/18 15:28:00;;;;;;;2.33;1.33;;;;;;;16.65;60.01;97614.11;125879;1102;22734;-80
2021/05/18 15:30:28;;;;;;;3.70;2.15;;;;;;;16.66;62.55;97620.41;125817;1096;25865;-80
2021/05/18 15:32:56;;;;;;;6.73;1.97;;;;;;;16.75;62.06;97609.52;125890;1102;22734;-80
2021/05/18 15:35:24;;;;;;;4.95;1.70;;;;;;;16.88;60.73;97615.05;125874;1102;24392;-80
2021/05/18 15:37:51;;;;;;;2.30;1.20;;;;;;;17.01;60.32;97618.89;126077;1096;27116;-80
2021/05/18 15:40:19;;;;;;;3.50;1.55;;;;;;;17.13;59.41;97621.13;125919;1101;22721;-80
2021/05/18 15:42:46;;;;;;;4.75;1.33;;;;;;;17.16;57.30;97616.95;126125;1101;22734;-80
2021/05/18 15:45:14;;;;;;;4.87;1.60;;;;;;;17.13;59.24;97621.13;126121;1101;24377;-80
2021/05/18 15:47:42;;;;;;;6.45;1.98;;;;;;;17.07;59.88;97617.67;126120;1097;26210;-80
2021/05/18 15:50:11;;;;;;;3.43;1.50;;;;;;;16.99;58.94;97612.89;125868;1101;24491;-80
2021/05/18 15:52:39;;;;;;;2.90;1.40;;;;;;;16.92;58.29;97614.44;125919;1101;25351;-80
2021/05/18 15:55:17;;;;;;;4.23;1.70;;;;;;;16.71;58.73;97609.31;125915;1096;27348;-80
2021/05/18 15:58:01;;;;;;;3.15;1.88;;;;;;;16.48;59.15;97614.73;126085;1097;26239;-80
2021/05/18 16:00:29;;;;;;;2.93;1.70;;;;;;;16.25;59.65;97616.51;125870;1102;22721;-80
2021/05/18 16:03:00;;;;;;;6.67;2.07;;;;;;;16.05;60.58;97614.95;126350;1096;22788;-80
2021/05/18 16:05:31;;;;;;;5.00;3.30;;;;;;;15.88;60.64;97618.28;126463;1101;22620;-80
2021/05/18 16:11:05;;;;;;;4.63;2.73;;;;;;;15.60;61.31;97625.56;126646;1096;26276;-80
2021/05/18 16:13:34;;;;;;;2.95;2.18;;;;;;;15.43;62.18;97636.25;126685;1096;26308;-80
2021/05/18 16:16:15;;;;;;;4.23;2.23;;;;;;;15.21;63.70;97636.82;126661;1102;22772;-80
2021/05/18 16:19:02;;;;;;;4.33;2.30;;;;;;;14.96;67.87;97647.02;126631;1101;22882;-79
2021/05/18 16:21:32;;;;;;;3.17;2.07;;;;;;;14.51;69.60;97660.94;126816;1101;22737;-79
2021/05/18 16:24:06;;;;;;;4.33;2.13;;;;;;;14.03;72.27;97682.77;126483;1101;22802;-79
2021/05/18 16:26:34;;;;;;;4.50;1.77;;;;;;;13.44;72.71;97695.50;126148;1096;25868;-79
2021/05/18 16:29:03;;;;;;;2.80;1.00;;;;;;;12.92;72.75;97673.01;126463;1096;24400;-80
2021/05/18 16:31:31;;;;;;;2.57;1.20;;;;;;;12.52;74.38;97681.07;126290;1097;22858;-80
2021/05/18 16:34:00;;;;;;;2.80;2.00;;;;;;;12.22;76.47;97672.95;126625;1101;24409;-80
2021/05/18 16:36:28;;;;;;;2.48;1.45;;;;;;;12.01;77.26;97680.33;126435;1096;26241;-80
2021/05/18 16:38:57;;;;;;;1.95;0.80;;;;;;;11.86;78.20;97686.55;126766;1101;24520;-80
2021/05/18 16:41:25;;;;;;;3.17;0.83;;;;;;;11.74;77.93;97684.12;126776;1101;22755;-80
2021/05/18 16:43:53;;;;;;;1.15;0.73;;;;;;;11.65;78.62;97711.11;126303;1103;22808;-80
2021/05/18 16:46:20;;;;;;;2.60;1.00;;;;;;;11.57;79.11;97708.90;125984;1096;27262;-80
2021/05/18 16:48:48;;;;;;;3.23;1.40;;;;;;;11.49;79.03;97698.51;126112;1102;22768;-80
2021/05/18 16:51:16;;;;;;;2.00;1.00;;;;;;;11.45;79.75;97705.60;126114;1101;22836;-80
2021/05/18 16:53:49;;;;;;;1.55;1.45;;;;;;;11.43;79.48;97700.41;125859;1097;27132;-80
2021/05/18 16:56:17;;;;;;;1.70;1.20;;;;;;;11.42;80.00;97706.97;126121;1101;22788;-80
2021/05/18 16:58:46;;;;;;;2.73;1.30;;;;;;;11.46;80.49;97709.98;125913;1096;24386;-80
2021/05/18 17:01:13;;;;;;;3.20;1.20;;;;;;;11.48;79.74;97713.25;126082;1101;22765;-80
2021/05/18 17:03:41;;;;;;;1.40;1.10;;;;;;;11.51;79.72;97716.26;126317;1096;26289;-80
2021/05/18 17:06:09;;;;;;;1.63;0.90;;;;;;;11.59;79.60;97712.17;126595;1097;22818;-80